sensor_id;sensor_type;location;lat;lon;timestamp;P1;durP1;ratioP1;P2;durP2;ratioP2
17347;SDS011;8791;50.876;4.342;2022-11-15T00:01:32;26.53;;;17.90;;
17347;SDS011;8791;50.876;4.342;2022-11-15T00:03:58;23.07;;;16.40;;
17347;SDS011;8791;50.876;4.342;2022-11-15T00:06:27;30.17;;;16.53;;
17347;SDS011;8791;50.876;4.342;2022-11-15T00:08:53;23.13;;;17.07;;
17347;SDS011;8791;50.876;4.342;2022-11-15T00:11:20;23.17;;;16.30;;
17347;SDS011;8791;50.876;4.342;2022-11-15T00:13:47;30.17;;;17.93;;
17347;SDS011;8791;50.876;4.342;2022-11-15T00:16:14;24.50;;;15.87;;
17347;SDS011;8791;50.876;4.342;2022-11-15T00:18:41;28.23;;;17.03;;
17347;SDS011;8791;50.876;4.342;2022-11-15T00:21:09;26.10;;;16.53;;
17347;SDS011;8791;50.876;4.342;2022-11-15T00:23:38;32.07;;;16.80;;
17347;SDS011;8791;50.876;4.342;2022-11-15T00:26:05;26.97;;;16.80;;
17347;SDS011;8791;50.876;4.342;2022-11-15T00:28:32;35.63;;;17.90;;
17347;SDS011;8791;50.876;4.342;2022-11-15T00:30:59;32.67;;;17.03;;
17347;SDS011;8791;50.876;4.342;2022-11-15T00:33:27;33.87;;;17.20;;
17347;SDS011;8791;50.876;4.342;2022-11-15T00:35:58;27.43;;;17.63;;
17347;SDS011;8791;50.876;4.342;2022-11-15T00:38:29;30.43;;;16.70;;
17347;SDS011;8791;50.876;4.342;2022-11-15T00:40:58;30.73;;;19.63;;
17347;SDS011;8791;50.876;4.342;2022-11-15T00:43:25;25.47;;;18.07;;
17347;SDS011;8791;50.876;4.342;2022-11-15T00:45:52;26.83;;;17.47;;
17347;SDS011;8791;50.876;4.342;2022-11-15T00:48:19;28.87;;;17.70;;
17347;SDS011;8791;50.876;4.342;2022-11-15T00:50:46;27.87;;;18.13;;
17347;SDS011;8791;50.876;4.342;2022-11-15T00:53:13;31.57;;;17.97;;
17347;SDS011;8791;50.876;4.342;2022-11-15T00:55:40;34.03;;;19.33;;
17347;SDS011;8791;50.876;4.342;2022-11-15T00:58:08;30.83;;;18.93;;
17347;SDS011;8791;50.876;4.342;2022-11-15T01:00:35;39.37;;;20.97;;
17347;SDS011;8791;50.876;4.342;2022-11-15T01:03:02;29.40;;;18.97;;
17347;SDS011;8791;50.876;4.342;2022-11-15T01:05:29;30.97;;;17.87;;
17347;SDS011;8791;50.876;4.342;2022-11-15T01:07:56;27.17;;;18.77;;
17347;SDS011;8791;50.876;4.342;2022-11-15T01:10:23;29.60;;;18.77;;
17347;SDS011;8791;50.876;4.342;2022-11-15T01:12:50;30.93;;;18.13;;
17347;SDS011;8791;50.876;4.342;2022-11-15T01:15:19;32.47;;;18.33;;
17347;SDS011;8791;50.876;4.342;2022-11-15T01:17:46;28.90;;;17.73;;
17347;SDS011;8791;50.876;4.342;2022-11-15T01:20:13;31.57;;;17.60;;
17347;SDS011;8791;50.876;4.342;2022-11-15T01:22:40;37.07;;;18.70;;
17347;SDS011;8791;50.876;4.342;2022-11-15T01:25:06;30.30;;;18.23;;
17347;SDS011;8791;50.876;4.342;2022-11-15T01:27:33;36.87;;;20.40;;
17347;SDS011;8791;50.876;4.342;2022-11-15T01:30:00;31.07;;;19.07;;
17347;SDS011;8791;50.876;4.342;2022-11-15T01:32:28;32.30;;;18.20;;
17347;SDS011;8791;50.876;4.342;2022-11-15T01:34:55;35.37;;;20.80;;
17347;SDS011;8791;50.876;4.342;2022-11-15T01:37:22;30.37;;;18.87;;
17347;SDS011;8791;50.876;4.342;2022-11-15T01:39:49;28.97;;;18.17;;
17347;SDS011;8791;50.876;4.342;2022-11-15T01:42:15;37.90;;;20.13;;
17347;SDS011;8791;50.876;4.342;2022-11-15T01:44:45;32.20;;;19.43;;
17347;SDS011;8791;50.876;4.342;2022-11-15T01:47:15;36.10;;;20.07;;
17347;SDS011;8791;50.876;4.342;2022-11-15T01:49:48;35.97;;;18.30;;
17347;SDS011;8791;50.876;4.342;2022-11-15T01:52:19;27.83;;;17.73;;
17347;SDS011;8791;50.876;4.342;2022-11-15T01:54:48;29.77;;;17.23;;
17347;SDS011;8791;50.876;4.342;2022-11-15T01:57:19;28.73;;;16.50;;
17347;SDS011;8791;50.876;4.342;2022-11-15T01:59:46;24.43;;;16.43;;
17347;SDS011;8791;50.876;4.342;2022-11-15T02:02:13;30.20;;;16.40;;
17347;SDS011;8791;50.876;4.342;2022-11-15T02:04:41;22.70;;;15.83;;
17347;SDS011;8791;50.876;4.342;2022-11-15T02:07:11;33.13;;;15.57;;
17347;SDS011;8791;50.876;4.342;2022-11-15T02:09:40;27.60;;;14.70;;
17347;SDS011;8791;50.876;4.342;2022-11-15T02:12:08;28.40;;;15.53;;
17347;SDS011;8791;50.876;4.342;2022-11-15T02:14:37;26.23;;;16.53;;
17347;SDS011;8791;50.876;4.342;2022-11-15T02:17:10;33.57;;;16.60;;
17347;SDS011;8791;50.876;4.342;2022-11-15T02:23:08;29.97;;;16.03;;
17347;SDS011;8791;50.876;4.342;2022-11-15T02:25:55;34.47;;;16.47;;
17347;SDS011;8791;50.876;4.342;2022-11-15T02:28:38;28.03;;;15.40;;
17347;SDS011;8791;50.876;4.342;2022-11-15T02:31:19;24.40;;;16.47;;
17347;SDS011;8791;50.876;4.342;2022-11-15T02:33:52;25.63;;;15.83;;
17347;SDS011;8791;50.876;4.342;2022-11-15T02:36:28;23.57;;;15.53;;
17347;SDS011;8791;50.876;4.342;2022-11-15T02:39:02;26.17;;;14.93;;
17347;SDS011;8791;50.876;4.342;2022-11-15T02:41:35;30.00;;;15.77;;
17347;SDS011;8791;50.876;4.342;2022-11-15T02:44:12;23.93;;;15.63;;
17347;SDS011;8791;50.876;4.342;2022-11-15T02:46:44;22.93;;;15.63;;
17347;SDS011;8791;50.876;4.342;2022-11-15T02:49:32;30.57;;;15.87;;
17347;SDS011;8791;50.876;4.342;2022-11-15T02:52:00;27.37;;;15.10;;
17347;SDS011;8791;50.876;4.342;2022-11-15T02:54:29;26.93;;;15.43;;
17347;SDS011;8791;50.876;4.342;2022-11-15T02:56:58;25.53;;;15.20;;
17347;SDS011;8791;50.876;4.342;2022-11-15T02:59:35;24.67;;;15.60;;
17347;SDS011;8791;50.876;4.342;2022-11-15T03:02:31;22.87;;;14.10;;
17347;SDS011;8791;50.876;4.342;2022-11-15T03:05:10;17.43;;;13.60;;
17347;SDS011;8791;50.876;4.342;2022-11-15T03:07:48;17.13;;;13.23;;
17347;SDS011;8791;50.876;4.342;2022-11-15T03:10:21;24.40;;;12.90;;
17347;SDS011;8791;50.876;4.342;2022-11-15T03:12:54;21.20;;;13.57;;
17347;SDS011;8791;50.876;4.342;2022-11-15T03:15:26;21.23;;;12.73;;
17347;SDS011;8791;50.876;4.342;2022-11-15T03:17:59;21.27;;;11.83;;
17347;SDS011;8791;50.876;4.342;2022-11-15T03:20:30;21.60;;;12.27;;
17347;SDS011;8791;50.876;4.342;2022-11-15T03:23:00;17.27;;;11.47;;
17347;SDS011;8791;50.876;4.342;2022-11-15T03:25:29;21.87;;;10.30;;
17347;SDS011;8791;50.876;4.342;2022-11-15T03:28:00;18.50;;;10.60;;
17347;SDS011;8791;50.876;4.342;2022-11-15T03:30:30;16.27;;;10.07;;
17347;SDS011;8791;50.876;4.342;2022-11-15T03:33:01;15.03;;;10.50;;
17347;SDS011;8791;50.876;4.342;2022-11-15T03:35:32;17.23;;;8.67;;
17347;SDS011;8791;50.876;4.342;2022-11-15T03:38:04;15.03;;;9.90;;
17347;SDS011;8791;50.876;4.342;2022-11-15T03:40:36;12.10;;;9.80;;
17347;SDS011;8791;50.876;4.342;2022-11-15T03:43:06;16.90;;;8.57;;
17347;SDS011;8791;50.876;4.342;2022-11-15T03:45:41;12.10;;;8.57;;
17347;SDS011;8791;50.876;4.342;2022-11-15T03:48:14;14.27;;;8.77;;
17347;SDS011;8791;50.876;4.342;2022-11-15T03:50:44;14.50;;;9.07;;
17347;SDS011;8791;50.876;4.342;2022-11-15T03:53:12;14.73;;;8.77;;
17347;SDS011;8791;50.876;4.342;2022-11-15T03:55:39;15.73;;;10.93;;
17347;SDS011;8791;50.876;4.342;2022-11-15T03:58:06;18.03;;;9.93;;
17347;SDS011;8791;50.876;4.342;2022-11-15T04:00:33;14.90;;;9.17;;
17347;SDS011;8791;50.876;4.342;2022-11-15T04:03:00;12.03;;;8.40;;
17347;SDS011;8791;50.876;4.342;2022-11-15T04:05:28;16.07;;;7.47;;
17347;SDS011;8791;50.876;4.342;2022-11-15T04:07:55;13.67;;;8.47;;
17347;SDS011;8791;50.876;4.342;2022-11-15T04:10:22;8.63;;;7.73;;
17347;SDS011;8791;50.876;4.342;2022-11-15T04:12:48;13.80;;;7.70;;
17347;SDS011;8791;50.876;4.342;2022-11-15T04:15:16;8.53;;;7.70;;
17347;SDS011;8791;50.876;4.342;2022-11-15T04:17:44;16.43;;;8.63;;
17347;SDS011;8791;50.876;4.342;2022-11-15T04:20:13;11.97;;;7.80;;
17347;SDS011;8791;50.876;4.342;2022-11-15T04:23:00;11.13;;;7.00;;
17347;SDS011;8791;50.876;4.342;2022-11-15T04:25:45;10.07;;;7.27;;
17347;SDS011;8791;50.876;4.342;2022-11-15T04:28:15;15.57;;;7.10;;
17347;SDS011;8791;50.876;4.342;2022-11-15T04:30:42;10.47;;;7.20;;
17347;SDS011;8791;50.876;4.342;2022-11-15T04:33:09;11.77;;;6.33;;
17347;SDS011;8791;50.876;4.342;2022-11-15T04:35:36;12.63;;;7.23;;
17347;SDS011;8791;50.876;4.342;2022-11-15T04:38:04;11.50;;;6.17;;
17347;SDS011;8791;50.876;4.342;2022-11-15T04:40:32;13.23;;;6.30;;
17347;SDS011;8791;50.876;4.342;2022-11-15T04:42:59;13.70;;;6.10;;
17347;SDS011;8791;50.876;4.342;2022-11-15T04:45:26;8.70;;;5.97;;
17347;SDS011;8791;50.876;4.342;2022-11-15T04:47:52;8.20;;;5.73;;
17347;SDS011;8791;50.876;4.342;2022-11-15T04:50:19;12.97;;;5.70;;
17347;SDS011;8791;50.876;4.342;2022-11-15T04:52:50;15.57;;;6.67;;
17347;SDS011;8791;50.876;4.342;2022-11-15T04:55:19;9.77;;;6.90;;
17347;SDS011;8791;50.876;4.342;2022-11-15T04:57:46;10.40;;;6.67;;
17347;SDS011;8791;50.876;4.342;2022-11-15T05:00:14;14.13;;;5.83;;
17347;SDS011;8791;50.876;4.342;2022-11-15T05:02:43;14.93;;;6.07;;
17347;SDS011;8791;50.876;4.342;2022-11-15T05:05:27;8.90;;;5.60;;
17347;SDS011;8791;50.876;4.342;2022-11-15T05:07:53;13.47;;;6.30;;
17347;SDS011;8791;50.876;4.342;2022-11-15T05:10:22;8.80;;;6.17;;
17347;SDS011;8791;50.876;4.342;2022-11-15T05:12:49;14.37;;;5.90;;
17347;SDS011;8791;50.876;4.342;2022-11-15T05:15:15;11.73;;;5.50;;
17347;SDS011;8791;50.876;4.342;2022-11-15T05:17:42;8.77;;;5.80;;
17347;SDS011;8791;50.876;4.342;2022-11-15T05:20:09;12.97;;;5.67;;
17347;SDS011;8791;50.876;4.342;2022-11-15T05:22:37;8.90;;;5.63;;
17347;SDS011;8791;50.876;4.342;2022-11-15T05:25:04;24.77;;;10.30;;
17347;SDS011;8791;50.876;4.342;2022-11-15T05:27:33;12.13;;;6.07;;
17347;SDS011;8791;50.876;4.342;2022-11-15T05:30:01;9.43;;;5.63;;
17347;SDS011;8791;50.876;4.342;2022-11-15T05:32:27;15.57;;;5.53;;
17347;SDS011;8791;50.876;4.342;2022-11-15T05:34:55;10.30;;;5.60;;
17347;SDS011;8791;50.876;4.342;2022-11-15T05:37:22;15.27;;;5.70;;
17347;SDS011;8791;50.876;4.342;2022-11-15T05:39:49;12.00;;;5.50;;
17347;SDS011;8791;50.876;4.342;2022-11-15T05:42:16;14.13;;;5.63;;
17347;SDS011;8791;50.876;4.342;2022-11-15T05:44:46;12.50;;;5.93;;
17347;SDS011;8791;50.876;4.342;2022-11-15T05:47:15;7.67;;;5.00;;
17347;SDS011;8791;50.876;4.342;2022-11-15T05:49:44;13.83;;;5.50;;
17347;SDS011;8791;50.876;4.342;2022-11-15T05:52:14;12.27;;;5.60;;
17347;SDS011;8791;50.876;4.342;2022-11-15T05:54:42;14.43;;;5.07;;
17347;SDS011;8791;50.876;4.342;2022-11-15T05:57:10;8.20;;;4.37;;
17347;SDS011;8791;50.876;4.342;2022-11-15T05:59:37;8.10;;;5.10;;
17347;SDS011;8791;50.876;4.342;2022-11-15T06:02:07;11.03;;;4.43;;
17347;SDS011;8791;50.876;4.342;2022-11-15T06:04:34;7.40;;;4.70;;
17347;SDS011;8791;50.876;4.342;2022-11-15T06:07:00;8.07;;;4.60;;
17347;SDS011;8791;50.876;4.342;2022-11-15T06:09:27;8.43;;;5.20;;
17347;SDS011;8791;50.876;4.342;2022-11-15T06:11:54;9.43;;;4.13;;
17347;SDS011;8791;50.876;4.342;2022-11-15T06:14:21;14.00;;;4.97;;
17347;SDS011;8791;50.876;4.342;2022-11-15T06:16:48;8.17;;;5.17;;
17347;SDS011;8791;50.876;4.342;2022-11-15T06:19:16;6.77;;;4.63;;
17347;SDS011;8791;50.876;4.342;2022-11-15T06:21:43;6.53;;;4.30;;
17347;SDS011;8791;50.876;4.342;2022-11-15T06:24:10;9.97;;;4.80;;
17347;SDS011;8791;50.876;4.342;2022-11-15T06:26:37;8.30;;;4.27;;
17347;SDS011;8791;50.876;4.342;2022-11-15T06:29:04;12.60;;;4.30;;
17347;SDS011;8791;50.876;4.342;2022-11-15T06:31:31;9.47;;;4.70;;
17347;SDS011;8791;50.876;4.342;2022-11-15T06:33:59;13.53;;;4.63;;
17347;SDS011;8791;50.876;4.342;2022-11-15T06:36:27;16.47;;;4.70;;
17347;SDS011;8791;50.876;4.342;2022-11-15T06:38:54;12.40;;;5.33;;
17347;SDS011;8791;50.876;4.342;2022-11-15T06:41:21;9.20;;;4.87;;
17347;SDS011;8791;50.876;4.342;2022-11-15T06:43:48;13.73;;;5.00;;
17347;SDS011;8791;50.876;4.342;2022-11-15T06:46:14;11.60;;;5.63;;
17347;SDS011;8791;50.876;4.342;2022-11-15T06:48:41;5.60;;;4.60;;
17347;SDS011;8791;50.876;4.342;2022-11-15T06:51:08;18.93;;;5.90;;
17347;SDS011;8791;50.876;4.342;2022-11-15T06:53:36;9.60;;;4.77;;
17347;SDS011;8791;50.876;4.342;2022-11-15T06:56:04;13.17;;;5.50;;
17347;SDS011;8791;50.876;4.342;2022-11-15T06:58:32;16.63;;;5.13;;
17347;SDS011;8791;50.876;4.342;2022-11-15T07:01:00;7.73;;;5.50;;
17347;SDS011;8791;50.876;4.342;2022-11-15T07:03:26;13.33;;;5.00;;
17347;SDS011;8791;50.876;4.342;2022-11-15T07:05:54;9.90;;;4.60;;
17347;SDS011;8791;50.876;4.342;2022-11-15T07:08:22;16.20;;;4.67;;
17347;SDS011;8791;50.876;4.342;2022-11-15T07:10:50;15.00;;;4.03;;
17347;SDS011;8791;50.876;4.342;2022-11-15T07:13:17;9.10;;;3.93;;
17347;SDS011;8791;50.876;4.342;2022-11-15T07:15:44;13.17;;;4.30;;
17347;SDS011;8791;50.876;4.342;2022-11-15T07:18:11;11.57;;;4.40;;
17347;SDS011;8791;50.876;4.342;2022-11-15T07:20:38;10.53;;;4.00;;
17347;SDS011;8791;50.876;4.342;2022-11-15T07:23:05;5.43;;;3.60;;
17347;SDS011;8791;50.876;4.342;2022-11-15T07:25:32;15.47;;;4.23;;
17347;SDS011;8791;50.876;4.342;2022-11-15T07:28:01;6.07;;;3.97;;
17347;SDS011;8791;50.876;4.342;2022-11-15T07:30:28;12.80;;;3.83;;
17347;SDS011;8791;50.876;4.342;2022-11-15T07:32:56;7.23;;;3.90;;
17347;SDS011;8791;50.876;4.342;2022-11-15T07:35:24;6.53;;;3.97;;
17347;SDS011;8791;50.876;4.342;2022-11-15T07:37:53;5.50;;;3.40;;
17347;SDS011;8791;50.876;4.342;2022-11-15T07:40:20;9.33;;;3.60;;
17347;SDS011;8791;50.876;4.342;2022-11-15T07:42:48;8.33;;;3.70;;
17347;SDS011;8791;50.876;4.342;2022-11-15T07:45:22;10.97;;;3.70;;
17347;SDS011;8791;50.876;4.342;2022-11-15T07:47:50;8.83;;;3.70;;
17347;SDS011;8791;50.876;4.342;2022-11-15T07:50:18;10.50;;;3.93;;
17347;SDS011;8791;50.876;4.342;2022-11-15T07:52:45;9.77;;;3.87;;
17347;SDS011;8791;50.876;4.342;2022-11-15T07:55:18;6.93;;;4.30;;
17347;SDS011;8791;50.876;4.342;2022-11-15T07:57:45;8.17;;;3.83;;
17347;SDS011;8791;50.876;4.342;2022-11-15T08:00:13;6.20;;;3.70;;
17347;SDS011;8791;50.876;4.342;2022-11-15T08:02:42;8.77;;;3.80;;
17347;SDS011;8791;50.876;4.342;2022-11-15T08:05:09;6.87;;;3.10;;
17347;SDS011;8791;50.876;4.342;2022-11-15T08:07:36;6.57;;;3.40;;
17347;SDS011;8791;50.876;4.342;2022-11-15T08:10:05;18.10;;;5.70;;
17347;SDS011;8791;50.876;4.342;2022-11-15T08:12:33;4.43;;;3.87;;
17347;SDS011;8791;50.876;4.342;2022-11-15T08:15:02;3.40;;;2.90;;
17347;SDS011;8791;50.876;4.342;2022-11-15T08:17:29;6.67;;;3.13;;
17347;SDS011;8791;50.876;4.342;2022-11-15T08:20:01;9.57;;;3.10;;
17347;SDS011;8791;50.876;4.342;2022-11-15T08:22:29;5.73;;;3.07;;
17347;SDS011;8791;50.876;4.342;2022-11-15T08:24:57;12.73;;;5.27;;
17347;SDS011;8791;50.876;4.342;2022-11-15T08:27:28;6.90;;;3.20;;
17347;SDS011;8791;50.876;4.342;2022-11-15T08:29:55;3.87;;;2.90;;
17347;SDS011;8791;50.876;4.342;2022-11-15T08:32:22;8.70;;;3.37;;
17347;SDS011;8791;50.876;4.342;2022-11-15T08:34:49;10.07;;;3.10;;
17347;SDS011;8791;50.876;4.342;2022-11-15T08:37:18;8.23;;;2.67;;
17347;SDS011;8791;50.876;4.342;2022-11-15T08:39:45;8.40;;;3.57;;
17347;SDS011;8791;50.876;4.342;2022-11-15T08:42:12;9.07;;;4.17;;
17347;SDS011;8791;50.876;4.342;2022-11-15T08:44:39;5.13;;;2.30;;
17347;SDS011;8791;50.876;4.342;2022-11-15T08:47:09;6.17;;;2.40;;
17347;SDS011;8791;50.876;4.342;2022-11-15T08:49:38;8.17;;;1.87;;
17347;SDS011;8791;50.876;4.342;2022-11-15T08:52:05;8.70;;;2.20;;
17347;SDS011;8791;50.876;4.342;2022-11-15T08:54:33;5.53;;;2.37;;
17347;SDS011;8791;50.876;4.342;2022-11-15T08:57:00;10.90;;;2.00;;
17347;SDS011;8791;50.876;4.342;2022-11-15T08:59:27;8.37;;;2.40;;
17347;SDS011;8791;50.876;4.342;2022-11-15T09:01:54;7.90;;;1.90;;
17347;SDS011;8791;50.876;4.342;2022-11-15T09:04:21;4.37;;;1.90;;
17347;SDS011;8791;50.876;4.342;2022-11-15T09:06:48;7.23;;;2.70;;
17347;SDS011;8791;50.876;4.342;2022-11-15T09:09:15;4.77;;;2.07;;
17347;SDS011;8791;50.876;4.342;2022-11-15T09:11:43;7.77;;;2.30;;
17347;SDS011;8791;50.876;4.342;2022-11-15T09:14:10;7.47;;;3.13;;
17347;SDS011;8791;50.876;4.342;2022-11-15T09:16:37;7.63;;;2.10;;
17347;SDS011;8791;50.876;4.342;2022-11-15T09:19:04;6.93;;;2.30;;
17347;SDS011;8791;50.876;4.342;2022-11-15T09:21:31;5.40;;;2.60;;
17347;SDS011;8791;50.876;4.342;2022-11-15T09:23:58;9.00;;;1.73;;
17347;SDS011;8791;50.876;4.342;2022-11-15T09:26:25;4.47;;;2.13;;
17347;SDS011;8791;50.876;4.342;2022-11-15T09:28:53;7.33;;;1.80;;
17347;SDS011;8791;50.876;4.342;2022-11-15T09:31:20;9.53;;;2.23;;
17347;SDS011;8791;50.876;4.342;2022-11-15T09:33:47;9.80;;;2.07;;
17347;SDS011;8791;50.876;4.342;2022-11-15T09:36:14;10.67;;;2.00;;
17347;SDS011;8791;50.876;4.342;2022-11-15T09:38:41;6.97;;;2.40;;
17347;SDS011;8791;50.876;4.342;2022-11-15T09:41:36;8.93;;;2.57;;
17347;SDS011;8791;50.876;4.342;2022-11-15T09:44:29;8.87;;;2.07;;
17347;SDS011;8791;50.876;4.342;2022-11-15T09:47:10;6.57;;;2.07;;
17347;SDS011;8791;50.876;4.342;2022-11-15T09:50:07;5.33;;;1.60;;
17347;SDS011;8791;50.876;4.342;2022-11-15T09:52:36;6.57;;;1.73;;
17347;SDS011;8791;50.876;4.342;2022-11-15T09:55:07;8.80;;;1.50;;
17347;SDS011;8791;50.876;4.342;2022-11-15T09:57:38;5.57;;;1.87;;
17347;SDS011;8791;50.876;4.342;2022-11-15T10:00:13;8.53;;;1.60;;
17347;SDS011;8791;50.876;4.342;2022-11-15T10:02:51;8.63;;;2.17;;
17347;SDS011;8791;50.876;4.342;2022-11-15T10:05:28;8.20;;;1.97;;
17347;SDS011;8791;50.876;4.342;2022-11-15T10:07:58;12.20;;;1.97;;
17347;SDS011;8791;50.876;4.342;2022-11-15T10:10:32;15.30;;;1.90;;
17347;SDS011;8791;50.876;4.342;2022-11-15T10:13:04;9.33;;;1.73;;
17347;SDS011;8791;50.876;4.342;2022-11-15T10:15:36;19.50;;;2.17;;
17347;SDS011;8791;50.876;4.342;2022-11-15T10:18:07;14.20;;;2.10;;
17347;SDS011;8791;50.876;4.342;2022-11-15T10:20:42;5.77;;;1.50;;
17347;SDS011;8791;50.876;4.342;2022-11-15T10:23:13;7.03;;;1.53;;
17347;SDS011;8791;50.876;4.342;2022-11-15T10:25:42;9.27;;;1.70;;
17347;SDS011;8791;50.876;4.342;2022-11-15T10:28:11;6.03;;;1.67;;
17347;SDS011;8791;50.876;4.342;2022-11-15T10:30:49;7.50;;;1.57;;
17347;SDS011;8791;50.876;4.342;2022-11-15T10:33:25;12.57;;;2.23;;
17347;SDS011;8791;50.876;4.342;2022-11-15T10:38:56;14.30;;;2.30;;
17347;SDS011;8791;50.876;4.342;2022-11-15T10:41:31;10.00;;;1.70;;
17347;SDS011;8791;50.876;4.342;2022-11-15T10:44:02;4.43;;;1.40;;
17347;SDS011;8791;50.876;4.342;2022-11-15T10:46:46;6.13;;;1.83;;
17347;SDS011;8791;50.876;4.342;2022-11-15T10:49:16;11.23;;;1.57;;
17347;SDS011;8791;50.876;4.342;2022-11-15T10:51:46;5.47;;;1.80;;
17347;SDS011;8791;50.876;4.342;2022-11-15T10:54:18;8.90;;;1.60;;
17347;SDS011;8791;50.876;4.342;2022-11-15T10:56:50;7.43;;;1.53;;
17347;SDS011;8791;50.876;4.342;2022-11-15T10:59:20;50.17;;;13.47;;
17347;SDS011;8791;50.876;4.342;2022-11-15T11:01:53;8.47;;;1.60;;
17347;SDS011;8791;50.876;4.342;2022-11-15T11:04:20;11.43;;;1.77;;
17347;SDS011;8791;50.876;4.342;2022-11-15T11:06:50;6.33;;;1.60;;
17347;SDS011;8791;50.876;4.342;2022-11-15T11:09:23;5.80;;;1.60;;
17347;SDS011;8791;50.876;4.342;2022-11-15T11:11:54;9.50;;;1.40;;
17347;SDS011;8791;50.876;4.342;2022-11-15T11:14:22;8.00;;;1.70;;
17347;SDS011;8791;50.876;4.342;2022-11-15T11:16:54;7.13;;;1.90;;
17347;SDS011;8791;50.876;4.342;2022-11-15T11:19:31;7.73;;;1.60;;
17347;SDS011;8791;50.876;4.342;2022-11-15T11:22:13;10.80;;;1.80;;
17347;SDS011;8791;50.876;4.342;2022-11-15T11:24:48;7.40;;;1.40;;
17347;SDS011;8791;50.876;4.342;2022-11-15T11:27:24;4.50;;;1.50;;
17347;SDS011;8791;50.876;4.342;2022-11-15T11:30:02;9.30;;;1.30;;
17347;SDS011;8791;50.876;4.342;2022-11-15T11:32:40;5.60;;;1.43;;
17347;SDS011;8791;50.876;4.342;2022-11-15T11:35:24;6.70;;;1.80;;
17347;SDS011;8791;50.876;4.342;2022-11-15T11:37:58;3.83;;;1.17;;
17347;SDS011;8791;50.876;4.342;2022-11-15T11:40:39;3.47;;;1.10;;
17347;SDS011;8791;50.876;4.342;2022-11-15T11:43:11;5.63;;;1.50;;
17347;SDS011;8791;50.876;4.342;2022-11-15T11:48:43;7.93;;;1.43;;
17347;SDS011;8791;50.876;4.342;2022-11-15T11:51:13;4.67;;;1.37;;
17347;SDS011;8791;50.876;4.342;2022-11-15T11:53:46;9.30;;;1.93;;
17347;SDS011;8791;50.876;4.342;2022-11-15T11:56:22;5.77;;;1.20;;
17347;SDS011;8791;50.876;4.342;2022-11-15T11:58:52;10.07;;;1.37;;
17347;SDS011;8791;50.876;4.342;2022-11-15T12:01:22;5.07;;;1.30;;
17347;SDS011;8791;50.876;4.342;2022-11-15T12:03:54;11.50;;;1.47;;
17347;SDS011;8791;50.876;4.342;2022-11-15T12:06:27;5.30;;;1.57;;
17347;SDS011;8791;50.876;4.342;2022-11-15T12:09:00;5.37;;;1.50;;
17347;SDS011;8791;50.876;4.342;2022-11-15T12:11:43;5.60;;;1.77;;
17347;SDS011;8791;50.876;4.342;2022-11-15T12:14:22;12.93;;;1.60;;
17347;SDS011;8791;50.876;4.342;2022-11-15T12:16:53;4.40;;;1.70;;
17347;SDS011;8791;50.876;4.342;2022-11-15T12:19:21;7.10;;;1.63;;
17347;SDS011;8791;50.876;4.342;2022-11-15T12:21:49;5.13;;;2.07;;
17347;SDS011;8791;50.876;4.342;2022-11-15T12:24:23;7.40;;;1.97;;
17347;SDS011;8791;50.876;4.342;2022-11-15T12:27:00;6.03;;;2.00;;
17347;SDS011;8791;50.876;4.342;2022-11-15T12:29:32;8.53;;;1.73;;
17347;SDS011;8791;50.876;4.342;2022-11-15T12:32:02;20.27;;;3.70;;
17347;SDS011;8791;50.876;4.342;2022-11-15T12:34:39;6.67;;;2.23;;
17347;SDS011;8791;50.876;4.342;2022-11-15T12:40:18;14.27;;;6.30;;
17347;SDS011;8791;50.876;4.342;2022-11-15T12:42:58;11.97;;;5.47;;
17347;SDS011;8791;50.876;4.342;2022-11-15T12:45:31;11.33;;;4.83;;
17347;SDS011;8791;50.876;4.342;2022-11-15T12:51:14;5.87;;;1.90;;
17347;SDS011;8791;50.876;4.342;2022-11-15T12:53:41;14.63;;;2.20;;
17347;SDS011;8791;50.876;4.342;2022-11-15T12:56:08;8.50;;;2.87;;
17347;SDS011;8791;50.876;4.342;2022-11-15T12:58:44;9.70;;;2.63;;
17347;SDS011;8791;50.876;4.342;2022-11-15T13:04:21;10.27;;;2.97;;
17347;SDS011;8791;50.876;4.342;2022-11-15T13:06:53;17.30;;;6.20;;
17347;SDS011;8791;50.876;4.342;2022-11-15T13:15:36;20.07;;;5.40;;
17347;SDS011;8791;50.876;4.342;2022-11-15T13:18:26;4.17;;;1.80;;
17347;SDS011;8791;50.876;4.342;2022-11-15T13:20:58;5.03;;;1.70;;
17347;SDS011;8791;50.876;4.342;2022-11-15T13:23:26;9.10;;;1.60;;
17347;SDS011;8791;50.876;4.342;2022-11-15T13:25:57;7.70;;;1.30;;
17347;SDS011;8791;50.876;4.342;2022-11-15T13:28:38;4.07;;;1.53;;
17347;SDS011;8791;50.876;4.342;2022-11-15T13:33:56;9.43;;;1.53;;
17347;SDS011;8791;50.876;4.342;2022-11-15T13:36:26;2.57;;;1.17;;
17347;SDS011;8791;50.876;4.342;2022-11-15T13:38:57;4.23;;;1.30;;
17347;SDS011;8791;50.876;4.342;2022-11-15T13:41:27;4.40;;;2.20;;
17347;SDS011;8791;50.876;4.342;2022-11-15T13:43:55;5.63;;;2.47;;
17347;SDS011;8791;50.876;4.342;2022-11-15T13:46:24;2.33;;;1.40;;
17347;SDS011;8791;50.876;4.342;2022-11-15T13:48:54;2.73;;;1.30;;
17347;SDS011;8791;50.876;4.342;2022-11-15T13:51:24;7.23;;;1.90;;
17347;SDS011;8791;50.876;4.342;2022-11-15T13:53:57;4.00;;;1.40;;
17347;SDS011;8791;50.876;4.342;2022-11-15T13:56:27;2.90;;;1.40;;
17347;SDS011;8791;50.876;4.342;2022-11-15T13:58:57;2.30;;;1.30;;
17347;SDS011;8791;50.876;4.342;2022-11-15T14:01:24;5.00;;;1.63;;
17347;SDS011;8791;50.876;4.342;2022-11-15T14:03:54;4.00;;;1.47;;
17347;SDS011;8791;50.876;4.342;2022-11-15T14:06:23;4.17;;;1.73;;
17347;SDS011;8791;50.876;4.342;2022-11-15T14:09:04;3.47;;;1.33;;
17347;SDS011;8791;50.876;4.342;2022-11-15T14:11:52;2.73;;;1.30;;
17347;SDS011;8791;50.876;4.342;2022-11-15T14:14:20;1.73;;;1.20;;
17347;SDS011;8791;50.876;4.342;2022-11-15T14:16:50;2.70;;;1.20;;
17347;SDS011;8791;50.876;4.342;2022-11-15T14:19:35;2.27;;;1.47;;
17347;SDS011;8791;50.876;4.342;2022-11-15T14:22:07;2.83;;;1.30;;
17347;SDS011;8791;50.876;4.342;2022-11-15T14:24:36;2.93;;;1.30;;
17347;SDS011;8791;50.876;4.342;2022-11-15T14:27:17;4.27;;;1.80;;
17347;SDS011;8791;50.876;4.342;2022-11-15T14:29:48;6.00;;;1.80;;
17347;SDS011;8791;50.876;4.342;2022-11-15T14:32:16;4.63;;;1.67;;
17347;SDS011;8791;50.876;4.342;2022-11-15T14:34:45;3.37;;;2.20;;
17347;SDS011;8791;50.876;4.342;2022-11-15T14:37:19;2.60;;;1.50;;
17347;SDS011;8791;50.876;4.342;2022-11-15T14:39:49;2.40;;;1.40;;
17347;SDS011;8791;50.876;4.342;2022-11-15T14:42:17;2.30;;;1.70;;
17347;SDS011;8791;50.876;4.342;2022-11-15T14:44:45;3.00;;;1.50;;
17347;SDS011;8791;50.876;4.342;2022-11-15T14:47:12;5.67;;;1.80;;
17347;SDS011;8791;50.876;4.342;2022-11-15T14:49:39;9.80;;;1.93;;
17347;SDS011;8791;50.876;4.342;2022-11-15T14:52:25;5.60;;;1.80;;
17347;SDS011;8791;50.876;4.342;2022-11-15T14:54:55;4.93;;;2.13;;
17347;SDS011;8791;50.876;4.342;2022-11-15T14:57:23;4.40;;;2.30;;
17347;SDS011;8791;50.876;4.342;2022-11-15T14:59:50;3.17;;;1.87;;
17347;SDS011;8791;50.876;4.342;2022-11-15T15:02:25;8.60;;;2.60;;
17347;SDS011;8791;50.876;4.342;2022-11-15T15:04:53;7.80;;;2.20;;
17347;SDS011;8791;50.876;4.342;2022-11-15T15:07:20;4.57;;;2.10;;
17347;SDS011;8791;50.876;4.342;2022-11-15T15:09:47;2.77;;;1.80;;
17347;SDS011;8791;50.876;4.342;2022-11-15T15:12:18;2.70;;;1.90;;
17347;SDS011;8791;50.876;4.342;2022-11-15T15:14:47;10.40;;;2.90;;
17347;SDS011;8791;50.876;4.342;2022-11-15T15:17:15;6.40;;;1.93;;
17347;SDS011;8791;50.876;4.342;2022-11-15T15:19:42;5.00;;;2.13;;
17347;SDS011;8791;50.876;4.342;2022-11-15T15:22:11;4.50;;;2.00;;
17347;SDS011;8791;50.876;4.342;2022-11-15T15:24:40;5.47;;;2.60;;
17347;SDS011;8791;50.876;4.342;2022-11-15T15:27:07;3.97;;;2.57;;
17347;SDS011;8791;50.876;4.342;2022-11-15T15:29:36;4.07;;;3.03;;
17347;SDS011;8791;50.876;4.342;2022-11-15T15:32:03;2.47;;;1.60;;
17347;SDS011;8791;50.876;4.342;2022-11-15T15:34:30;2.00;;;1.60;;
17347;SDS011;8791;50.876;4.342;2022-11-15T15:37:06;2.37;;;1.63;;